sensor_id;sensor_type;location;lat;lon;timestamp;P1;durP1;ratioP1;P2;durP2;ratioP2
11887;SDS011;6003;42.756;23.130;2023-02-12T00:00:20;4.67;;;4.20;;
11887;SDS011;6003;42.756;23.130;2023-02-12T00:02:48;5.57;;;4.10;;
11887;SDS011;6003;42.756;23.130;2023-02-12T00:05:15;6.10;;;3.80;;
11887;SDS011;6003;42.756;23.130;2023-02-12T00:07:42;8.90;;;4.57;;
11887;SDS011;6003;42.756;23.130;2023-02-12T00:10:10;13.07;;;4.63;;
11887;SDS011;6003;42.756;23.130;2023-02-12T00:12:37;2.73;;;2.53;;
11887;SDS011;6003;42.756;23.130;2023-02-12T00:15:04;4.97;;;4.10;;
11887;SDS011;6003;42.756;23.130;2023-02-12T00:17:32;6.70;;;3.43;;
11887;SDS011;6003;42.756;23.130;2023-02-12T00:19:59;4.37;;;3.97;;
11887;SDS011;6003;42.756;23.130;2023-02-12T00:22:25;4.90;;;4.23;;
11887;SDS011;6003;42.756;23.130;2023-02-12T00:24:53;4.37;;;3.93;;
11887;SDS011;6003;42.756;23.130;2023-02-12T00:27:22;12.90;;;4.80;;
11887;SDS011;6003;42.756;23.130;2023-02-12T00:29:50;4.87;;;4.00;;
11887;SDS011;6003;42.756;23.130;2023-02-12T00:32:16;4.77;;;4.30;;
11887;SDS011;6003;42.756;23.130;2023-02-12T00:34:44;9.30;;;4.33;;
11887;SDS011;6003;42.756;23.130;2023-02-12T00:37:11;5.67;;;4.30;;
11887;SDS011;6003;42.756;23.130;2023-02-12T00:39:38;5.70;;;3.90;;
11887;SDS011;6003;42.756;23.130;2023-02-12T00:42:05;12.40;;;4.17;;
11887;SDS011;6003;42.756;23.130;2023-02-12T00:44:34;10.03;;;4.40;;
11887;SDS011;6003;42.756;23.130;2023-02-12T00:47:01;7.33;;;4.33;;
11887;SDS011;6003;42.756;23.130;2023-02-12T00:49:28;6.73;;;3.10;;
11887;SDS011;6003;42.756;23.130;2023-02-12T00:51:58;5.93;;;4.00;;
11887;SDS011;6003;42.756;23.130;2023-02-12T00:54:25;4.57;;;3.93;;
11887;SDS011;6003;42.756;23.130;2023-02-12T00:56:52;5.37;;;4.10;;
11887;SDS011;6003;42.756;23.130;2023-02-12T00:59:19;4.60;;;3.90;;
11887;SDS011;6003;42.756;23.130;2023-02-12T01:01:48;7.30;;;4.00;;
11887;SDS011;6003;42.756;23.130;2023-02-12T01:04:15;7.77;;;5.17;;
11887;SDS011;6003;42.756;23.130;2023-02-12T01:06:42;5.87;;;4.13;;
11887;SDS011;6003;42.756;23.130;2023-02-12T01:09:09;10.40;;;4.53;;
11887;SDS011;6003;42.756;23.130;2023-02-12T01:11:36;7.80;;;4.50;;
11887;SDS011;6003;42.756;23.130;2023-02-12T01:14:03;11.63;;;4.67;;
11887;SDS011;6003;42.756;23.130;2023-02-12T01:16:30;6.97;;;4.23;;
11887;SDS011;6003;42.756;23.130;2023-02-12T01:18:59;5.73;;;3.80;;
11887;SDS011;6003;42.756;23.130;2023-02-12T01:21:26;6.30;;;3.57;;
11887;SDS011;6003;42.756;23.130;2023-02-12T01:23:54;3.80;;;3.40;;
11887;SDS011;6003;42.756;23.130;2023-02-12T01:26:21;5.43;;;4.03;;
11887;SDS011;6003;42.756;23.130;2023-02-12T01:28:49;11.37;;;4.60;;
11887;SDS011;6003;42.756;23.130;2023-02-12T01:31:18;3.77;;;3.20;;
11887;SDS011;6003;42.756;23.130;2023-02-12T01:33:48;4.57;;;3.20;;
11887;SDS011;6003;42.756;23.130;2023-02-12T01:36:19;4.13;;;3.73;;
11887;SDS011;6003;42.756;23.130;2023-02-12T01:38:46;3.97;;;3.57;;
11887;SDS011;6003;42.756;23.130;2023-02-12T01:41:13;4.23;;;3.83;;
11887;SDS011;6003;42.756;23.130;2023-02-12T01:43:42;5.93;;;3.90;;
11887;SDS011;6003;42.756;23.130;2023-02-12T01:46:11;6.00;;;4.07;;
11887;SDS011;6003;42.756;23.130;2023-02-12T01:48:39;4.97;;;4.27;;
11887;SDS011;6003;42.756;23.130;2023-02-12T01:51:08;10.17;;;4.60;;
11887;SDS011;6003;42.756;23.130;2023-02-12T01:53:41;7.60;;;4.87;;
11887;SDS011;6003;42.756;23.130;2023-02-12T01:56:12;5.00;;;3.67;;
11887;SDS011;6003;42.756;23.130;2023-02-12T01:58:40;6.00;;;4.10;;
11887;SDS011;6003;42.756;23.130;2023-02-12T02:01:09;5.67;;;4.03;;
11887;SDS011;6003;42.756;23.130;2023-02-12T02:03:39;10.17;;;4.07;;
11887;SDS011;6003;42.756;23.130;2023-02-12T02:06:11;5.77;;;3.83;;
11887;SDS011;6003;42.756;23.130;2023-02-12T02:08:43;5.57;;;3.47;;
11887;SDS011;6003;42.756;23.130;2023-02-12T02:11:10;7.23;;;4.50;;
11887;SDS011;6003;42.756;23.130;2023-02-12T02:13:54;5.63;;;4.47;;
11887;SDS011;6003;42.756;23.130;2023-02-12T02:16:39;4.27;;;3.87;;
11887;SDS011;6003;42.756;23.130;2023-02-12T02:19:15;9.10;;;5.10;;
11887;SDS011;6003;42.756;23.130;2023-02-12T02:25:05;4.87;;;3.87;;
11887;SDS011;6003;42.756;23.130;2023-02-12T02:27:56;5.87;;;3.93;;
11887;SDS011;6003;42.756;23.130;2023-02-12T02:30:38;8.73;;;3.87;;
11887;SDS011;6003;42.756;23.130;2023-02-12T02:33:17;4.40;;;3.13;;
11887;SDS011;6003;42.756;23.130;2023-02-12T02:35:52;6.53;;;4.07;;
11887;SDS011;6003;42.756;23.130;2023-02-12T02:38:30;8.07;;;4.20;;
11887;SDS011;6003;42.756;23.130;2023-02-12T02:41:03;6.13;;;3.20;;
11887;SDS011;6003;42.756;23.130;2023-02-12T02:43:34;5.93;;;4.13;;
11887;SDS011;6003;42.756;23.130;2023-02-12T02:46:09;10.73;;;5.60;;
11887;SDS011;6003;42.756;23.130;2023-02-12T02:48:40;5.23;;;4.23;;
11887;SDS011;6003;42.756;23.130;2023-02-12T02:51:13;7.17;;;4.07;;
11887;SDS011;6003;42.756;23.130;2023-02-12T02:53:46;3.63;;;3.33;;
11887;SDS011;6003;42.756;23.130;2023-02-12T02:56:18;9.20;;;4.73;;
11887;SDS011;6003;42.756;23.130;2023-02-12T02:58:50;7.90;;;4.27;;
11887;SDS011;6003;42.756;23.130;2023-02-12T03:01:23;5.90;;;4.20;;
11887;SDS011;6003;42.756;23.130;2023-02-12T03:03:56;10.00;;;4.37;;
11887;SDS011;6003;42.756;23.130;2023-02-12T03:06:28;9.93;;;4.30;;
11887;SDS011;6003;42.756;23.130;2023-02-12T03:09:04;4.87;;;3.83;;
11887;SDS011;6003;42.756;23.130;2023-02-12T03:11:37;4.90;;;4.23;;
11887;SDS011;6003;42.756;23.130;2023-02-12T03:14:05;8.03;;;4.30;;
11887;SDS011;6003;42.756;23.130;2023-02-12T03:16:40;6.80;;;4.33;;
11887;SDS011;6003;42.756;23.130;2023-02-12T03:19:15;9.33;;;4.70;;
11887;SDS011;6003;42.756;23.130;2023-02-12T03:21:45;7.10;;;4.73;;
11887;SDS011;6003;42.756;23.130;2023-02-12T03:24:18;7.27;;;4.37;;
11887;SDS011;6003;42.756;23.130;2023-02-12T03:26:50;12.90;;;4.80;;
11887;SDS011;6003;42.756;23.130;2023-02-12T03:29:22;7.97;;;4.87;;
11887;SDS011;6003;42.756;23.130;2023-02-12T03:34:42;4.93;;;3.97;;
11887;SDS011;6003;42.756;23.130;2023-02-12T03:37:16;7.17;;;4.90;;
11887;SDS011;6003;42.756;23.130;2023-02-12T03:39:49;5.97;;;4.47;;
11887;SDS011;6003;42.756;23.130;2023-02-12T03:42:23;7.13;;;4.27;;
11887;SDS011;6003;42.756;23.130;2023-02-12T03:44:59;5.57;;;4.20;;
11887;SDS011;6003;42.756;23.130;2023-02-12T03:47:35;9.90;;;5.03;;
11887;SDS011;6003;42.756;23.130;2023-02-12T03:50:10;13.07;;;7.17;;
11887;SDS011;6003;42.756;23.130;2023-02-12T03:52:41;9.77;;;5.77;;
11887;SDS011;6003;42.756;23.130;2023-02-12T03:55:08;9.13;;;6.60;;
11887;SDS011;6003;42.756;23.130;2023-02-12T03:57:39;15.17;;;8.10;;
11887;SDS011;6003;42.756;23.130;2023-02-12T04:00:10;8.17;;;5.07;;
11887;SDS011;6003;42.756;23.130;2023-02-12T04:02:40;42.40;;;16.30;;
11887;SDS011;6003;42.756;23.130;2023-02-12T04:05:14;21.37;;;10.77;;
11887;SDS011;6003;42.756;23.130;2023-02-12T04:07:42;35.57;;;14.23;;
11887;SDS011;6003;42.756;23.130;2023-02-12T04:10:10;14.03;;;6.70;;
11887;SDS011;6003;42.756;23.130;2023-02-12T04:12:38;21.43;;;9.50;;
11887;SDS011;6003;42.756;23.130;2023-02-12T04:15:21;20.37;;;11.00;;
11887;SDS011;6003;42.756;23.130;2023-02-12T04:18:03;38.30;;;16.67;;
11887;SDS011;6003;42.756;23.130;2023-02-12T04:20:38;17.13;;;8.17;;
11887;SDS011;6003;42.756;23.130;2023-02-12T04:23:10;6.83;;;4.60;;
11887;SDS011;6003;42.756;23.130;2023-02-12T04:25:51;11.63;;;5.50;;
11887;SDS011;6003;42.756;23.130;2023-02-12T04:28:26;18.07;;;7.60;;
11887;SDS011;6003;42.756;23.130;2023-02-12T04:31:02;13.10;;;7.00;;
11887;SDS011;6003;42.756;23.130;2023-02-12T04:33:37;10.07;;;5.73;;
11887;SDS011;6003;42.756;23.130;2023-02-12T04:36:09;7.63;;;5.20;;
11887;SDS011;6003;42.756;23.130;2023-02-12T04:38:42;13.17;;;7.60;;
11887;SDS011;6003;42.756;23.130;2023-02-12T04:41:16;19.57;;;6.97;;
11887;SDS011;6003;42.756;23.130;2023-02-12T04:43:44;13.17;;;7.13;;
11887;SDS011;6003;42.756;23.130;2023-02-12T04:46:11;20.47;;;8.20;;
11887;SDS011;6003;42.756;23.130;2023-02-12T04:48:45;16.70;;;7.47;;
11887;SDS011;6003;42.756;23.130;2023-02-12T04:51:17;26.47;;;9.83;;
11887;SDS011;6003;42.756;23.130;2023-02-12T04:53:44;18.97;;;7.13;;
11887;SDS011;6003;42.756;23.130;2023-02-12T04:56:11;8.27;;;4.80;;
11887;SDS011;6003;42.756;23.130;2023-02-12T04:58:38;6.90;;;4.53;;
11887;SDS011;6003;42.756;23.130;2023-02-12T05:01:05;7.77;;;5.13;;
11887;SDS011;6003;42.756;23.130;2023-02-12T05:03:33;10.93;;;5.17;;
11887;SDS011;6003;42.756;23.130;2023-02-12T05:06:02;8.93;;;4.43;;
11887;SDS011;6003;42.756;23.130;2023-02-12T05:08:30;6.30;;;2.53;;
11887;SDS011;6003;42.756;23.130;2023-02-12T05:10:57;6.80;;;4.37;;
11887;SDS011;6003;42.756;23.130;2023-02-12T05:13:29;10.43;;;5.00;;
11887;SDS011;6003;42.756;23.130;2023-02-12T05:15:55;4.07;;;3.67;;
11887;SDS011;6003;42.756;23.130;2023-02-12T05:18:22;12.77;;;6.53;;
11887;SDS011;6003;42.756;23.130;2023-02-12T05:20:53;9.93;;;5.47;;
11887;SDS011;6003;42.756;23.130;2023-02-12T05:23:22;12.47;;;7.40;;
11887;SDS011;6003;42.756;23.130;2023-02-12T05:25:51;6.13;;;4.03;;
11887;SDS011;6003;42.756;23.130;2023-02-12T05:28:18;7.77;;;4.40;;
11887;SDS011;6003;42.756;23.130;2023-02-12T05:30:45;2.83;;;2.63;;
11887;SDS011;6003;42.756;23.130;2023-02-12T05:33:12;5.67;;;3.53;;
11887;SDS011;6003;42.756;23.130;2023-02-12T05:35:38;11.23;;;4.73;;
11887;SDS011;6003;42.756;23.130;2023-02-12T05:38:05;9.77;;;6.33;;
11887;SDS011;6003;42.756;23.130;2023-02-12T05:40:33;7.57;;;5.83;;
11887;SDS011;6003;42.756;23.130;2023-02-12T05:43:01;7.07;;;4.80;;
11887;SDS011;6003;42.756;23.130;2023-02-12T05:45:28;10.33;;;4.90;;
11887;SDS011;6003;42.756;23.130;2023-02-12T05:47:55;3.77;;;3.00;;
11887;SDS011;6003;42.756;23.130;2023-02-12T05:50:22;5.70;;;4.03;;
11887;SDS011;6003;42.756;23.130;2023-02-12T05:52:48;5.37;;;3.90;;
11887;SDS011;6003;42.756;23.130;2023-02-12T05:55:15;3.60;;;3.00;;
11887;SDS011;6003;42.756;23.130;2023-02-12T05:57:44;5.77;;;4.57;;
11887;SDS011;6003;42.756;23.130;2023-02-12T06:00:12;11.10;;;5.83;;
11887;SDS011;6003;42.756;23.130;2023-02-12T06:02:40;5.90;;;4.00;;
11887;SDS011;6003;42.756;23.130;2023-02-12T06:05:07;4.00;;;3.40;;
11887;SDS011;6003;42.756;23.130;2023-02-12T06:07:33;2.57;;;2.37;;
11887;SDS011;6003;42.756;23.130;2023-02-12T06:10:00;6.30;;;4.77;;
11887;SDS011;6003;42.756;23.130;2023-02-12T06:12:27;2.70;;;2.10;;
11887;SDS011;6003;42.756;23.130;2023-02-12T06:14:55;10.73;;;4.47;;
11887;SDS011;6003;42.756;23.130;2023-02-12T06:17:22;6.93;;;4.40;;
11887;SDS011;6003;42.756;23.130;2023-02-12T06:19:49;8.03;;;5.37;;
11887;SDS011;6003;42.756;23.130;2023-02-12T06:22:16;12.03;;;5.43;;
11887;SDS011;6003;42.756;23.130;2023-02-12T06:24:43;5.67;;;4.37;;
11887;SDS011;6003;42.756;23.130;2023-02-12T06:27:10;6.47;;;4.33;;
11887;SDS011;6003;42.756;23.130;2023-02-12T06:29:37;7.57;;;4.50;;
11887;SDS011;6003;42.756;23.130;2023-02-12T06:32:05;4.00;;;3.50;;
11887;SDS011;6003;42.756;23.130;2023-02-12T06:34:32;10.67;;;4.43;;
11887;SDS011;6003;42.756;23.130;2023-02-12T06:36:59;7.73;;;5.13;;
11887;SDS011;6003;42.756;23.130;2023-02-12T06:39:26;7.20;;;4.93;;
11887;SDS011;6003;42.756;23.130;2023-02-12T06:41:53;4.17;;;3.77;;
11887;SDS011;6003;42.756;23.130;2023-02-12T06:44:20;3.90;;;3.10;;
11887;SDS011;6003;42.756;23.130;2023-02-12T06:46:47;3.70;;;2.23;;
11887;SDS011;6003;42.756;23.130;2023-02-12T06:49:15;5.77;;;3.30;;
11887;SDS011;6003;42.756;23.130;2023-02-12T06:51:42;4.43;;;2.50;;
11887;SDS011;6003;42.756;23.130;2023-02-12T06:54:12;9.40;;;3.57;;
11887;SDS011;6003;42.756;23.130;2023-02-12T06:56:40;4.13;;;2.90;;
11887;SDS011;6003;42.756;23.130;2023-02-12T06:59:09;3.83;;;3.43;;
11887;SDS011;6003;42.756;23.130;2023-02-12T07:01:39;3.97;;;3.50;;
11887;SDS011;6003;42.756;23.130;2023-02-12T07:04:06;5.07;;;4.40;;
11887;SDS011;6003;42.756;23.130;2023-02-12T07:06:35;8.00;;;4.30;;
11887;SDS011;6003;42.756;23.130;2023-02-12T07:09:01;10.10;;;4.90;;
11887;SDS011;6003;42.756;23.130;2023-02-12T07:11:31;6.23;;;4.03;;
11887;SDS011;6003;42.756;23.130;2023-02-12T07:13:59;4.93;;;3.60;;
11887;SDS011;6003;42.756;23.130;2023-02-12T07:16:26;4.67;;;3.23;;
11887;SDS011;6003;42.756;23.130;2023-02-12T07:18:52;8.47;;;4.27;;
11887;SDS011;6003;42.756;23.130;2023-02-12T07:21:19;9.33;;;4.70;;
11887;SDS011;6003;42.756;23.130;2023-02-12T07:23:49;8.93;;;5.83;;
11887;SDS011;6003;42.756;23.130;2023-02-12T07:26:17;6.17;;;4.63;;
11887;SDS011;6003;42.756;23.130;2023-02-12T07:28:45;11.53;;;7.03;;
11887;SDS011;6003;42.756;23.130;2023-02-12T07:31:13;11.80;;;6.57;;
11887;SDS011;6003;42.756;23.130;2023-02-12T07:33:42;14.33;;;6.37;;
11887;SDS011;6003;42.756;23.130;2023-02-12T07:36:10;11.93;;;7.87;;
11887;SDS011;6003;42.756;23.130;2023-02-12T07:38:38;8.33;;;5.60;;
11887;SDS011;6003;42.756;23.130;2023-02-12T07:41:08;10.50;;;5.70;;
11887;SDS011;6003;42.756;23.130;2023-02-12T07:43:36;8.97;;;6.00;;
11887;SDS011;6003;42.756;23.130;2023-02-12T07:46:07;9.27;;;5.20;;
11887;SDS011;6003;42.756;23.130;2023-02-12T07:48:35;8.83;;;5.93;;
11887;SDS011;6003;42.756;23.130;2023-02-12T07:51:03;12.17;;;5.83;;
11887;SDS011;6003;42.756;23.130;2023-02-12T07:53:31;5.17;;;4.33;;
11887;SDS011;6003;42.756;23.130;2023-02-12T07:56:03;7.57;;;3.90;;
11887;SDS011;6003;42.756;23.130;2023-02-12T07:58:36;2.60;;;2.40;;
11887;SDS011;6003;42.756;23.130;2023-02-12T08:01:14;9.10;;;5.30;;
11887;SDS011;6003;42.756;23.130;2023-02-12T08:03:43;8.53;;;5.40;;
11887;SDS011;6003;42.756;23.130;2023-02-12T08:06:11;8.37;;;6.07;;
11887;SDS011;6003;42.756;23.130;2023-02-12T08:08:41;6.37;;;5.07;;
11887;SDS011;6003;42.756;23.130;2023-02-12T08:11:09;10.83;;;4.70;;
11887;SDS011;6003;42.756;23.130;2023-02-12T08:13:37;6.50;;;3.27;;
11887;SDS011;6003;42.756;23.130;2023-02-12T08:16:05;9.47;;;5.23;;
11887;SDS011;6003;42.756;23.130;2023-02-12T08:18:34;9.20;;;4.50;;
11887;SDS011;6003;42.756;23.130;2023-02-12T08:21:02;8.13;;;5.87;;
11887;SDS011;6003;42.756;23.130;2023-02-12T08:23:29;11.90;;;5.57;;
11887;SDS011;6003;42.756;23.130;2023-02-12T08:26:03;10.33;;;6.03;;
11887;SDS011;6003;42.756;23.130;2023-02-12T08:28:37;8.90;;;6.07;;
11887;SDS011;6003;42.756;23.130;2023-02-12T08:31:08;9.73;;;5.20;;
11887;SDS011;6003;42.756;23.130;2023-02-12T08:33:36;10.07;;;5.83;;
11887;SDS011;6003;42.756;23.130;2023-02-12T08:36:03;14.00;;;4.93;;
11887;SDS011;6003;42.756;23.130;2023-02-12T08:38:33;6.93;;;4.67;;
11887;SDS011;6003;42.756;23.130;2023-02-12T08:41:01;11.97;;;5.80;;
11887;SDS011;6003;42.756;23.130;2023-02-12T08:43:28;9.90;;;6.27;;
11887;SDS011;6003;42.756;23.130;2023-02-12T08:46:01;8.60;;;5.30;;
11887;SDS011;6003;42.756;23.130;2023-02-12T08:48:29;8.57;;;6.20;;
11887;SDS011;6003;42.756;23.130;2023-02-12T08:51:01;8.43;;;3.33;;
11887;SDS011;6003;42.756;23.130;2023-02-12T08:53:29;11.50;;;6.37;;
11887;SDS011;6003;42.756;23.130;2023-02-12T08:55:56;6.57;;;4.90;;
11887;SDS011;6003;42.756;23.130;2023-02-12T08:58:23;7.20;;;5.83;;
11887;SDS011;6003;42.756;23.130;2023-02-12T09:00:50;8.60;;;5.17;;
11887;SDS011;6003;42.756;23.130;2023-02-12T09:03:18;14.13;;;6.73;;
11887;SDS011;6003;42.756;23.130;2023-02-12T09:05:45;14.57;;;7.57;;
11887;SDS011;6003;42.756;23.130;2023-02-12T09:08:12;14.17;;;7.93;;
11887;SDS011;6003;42.756;23.130;2023-02-12T09:10:40;10.47;;;5.23;;
11887;SDS011;6003;42.756;23.130;2023-02-12T09:13:07;8.73;;;5.67;;
11887;SDS011;6003;42.756;23.130;2023-02-12T09:15:35;8.63;;;6.13;;
11887;SDS011;6003;42.756;23.130;2023-02-12T09:18:03;11.50;;;6.90;;
11887;SDS011;6003;42.756;23.130;2023-02-12T09:20:32;9.83;;;6.10;;
11887;SDS011;6003;42.756;23.130;2023-02-12T09:22:59;3.57;;;2.27;;
11887;SDS011;6003;42.756;23.130;2023-02-12T09:25:26;5.97;;;3.77;;
11887;SDS011;6003;42.756;23.130;2023-02-12T09:27:53;14.10;;;6.47;;
11887;SDS011;6003;42.756;23.130;2023-02-12T09:30:20;4.80;;;4.13;;
11887;SDS011;6003;42.756;23.130;2023-02-12T09:32:48;6.93;;;4.77;;
11887;SDS011;6003;42.756;23.130;2023-02-12T09:35:14;4.40;;;4.07;;
11887;SDS011;6003;42.756;23.130;2023-02-12T09:37:44;6.80;;;4.77;;
11887;SDS011;6003;42.756;23.130;2023-02-12T09:40:15;5.10;;;3.33;;
11887;SDS011;6003;42.756;23.130;2023-02-12T09:42:52;11.20;;;5.00;;
11887;SDS011;6003;42.756;23.130;2023-02-12T09:45:37;9.90;;;6.40;;
11887;SDS011;6003;42.756;23.130;2023-02-12T09:51:08;6.27;;;4.43;;
11887;SDS011;6003;42.756;23.130;2023-02-12T09:53:38;5.37;;;3.33;;
11887;SDS011;6003;42.756;23.130;2023-02-12T09:56:13;8.97;;;5.97;;
11887;SDS011;6003;42.756;23.130;2023-02-12T09:58:44;4.13;;;3.27;;
11887;SDS011;6003;42.756;23.130;2023-02-12T10:01:13;14.77;;;7.80;;
11887;SDS011;6003;42.756;23.130;2023-02-12T10:03:42;9.30;;;5.30;;
11887;SDS011;6003;42.756;23.130;2023-02-12T10:06:11;5.40;;;4.13;;
11887;SDS011;6003;42.756;23.130;2023-02-12T10:08:54;11.03;;;6.67;;
11887;SDS011;6003;42.756;23.130;2023-02-12T10:11:39;9.50;;;7.10;;
11887;SDS011;6003;42.756;23.130;2023-02-12T10:14:19;11.90;;;6.97;;
11887;SDS011;6003;42.756;23.130;2023-02-12T10:17:02;8.73;;;5.50;;
11887;SDS011;6003;42.756;23.130;2023-02-12T10:19:47;7.53;;;4.97;;
11887;SDS011;6003;42.756;23.130;2023-02-12T10:22:31;7.53;;;5.63;;
11887;SDS011;6003;42.756;23.130;2023-02-12T10:25:13;11.97;;;6.37;;
11887;SDS011;6003;42.756;23.130;2023-02-12T10:27:49;9.20;;;6.23;;
11887;SDS011;6003;42.756;23.130;2023-02-12T10:30:19;5.10;;;4.60;;
11887;SDS011;6003;42.756;23.130;2023-02-12T10:32:50;13.60;;;8.03;;
11887;SDS011;6003;42.756;23.130;2023-02-12T10:35:24;10.70;;;7.07;;
11887;SDS011;6003;42.756;23.130;2023-02-12T10:37:53;7.80;;;5.03;;
11887;SDS011;6003;42.756;23.130;2023-02-12T10:40:25;14.27;;;6.73;;
11887;SDS011;6003;42.756;23.130;2023-02-12T10:42:54;11.77;;;6.70;;
11887;SDS011;6003;42.756;23.130;2023-02-12T10:45:23;6.73;;;4.03;;
11887;SDS011;6003;42.756;23.130;2023-02-12T10:47:53;11.60;;;5.60;;
11887;SDS011;6003;42.756;23.130;2023-02-12T10:50:32;9.30;;;4.53;;
11887;SDS011;6003;42.756;23.130;2023-02-12T10:53:15;11.87;;;6.47;;
11887;SDS011;6003;42.756;23.130;2023-02-12T10:55:47;12.53;;;4.50;;
11887;SDS011;6003;42.756;23.130;2023-02-12T10:58:17;15.60;;;7.53;;
11887;SDS011;6003;42.756;23.130;2023-02-12T11:00:47;11.67;;;7.53;;
11887;SDS011;6003;42.756;23.130;2023-02-12T11:03:22;10.97;;;4.03;;
11887;SDS011;6003;42.756;23.130;2023-02-12T11:05:53;11.57;;;5.23;;
11887;SDS011;6003;42.756;23.130;2023-02-12T11:08:30;15.17;;;7.90;;
11887;SDS011;6003;42.756;23.130;2023-02-12T11:11:05;15.30;;;8.20;;
11887;SDS011;6003;42.756;23.130;2023-02-12T11:13:35;15.60;;;6.93;;
11887;SDS011;6003;42.756;23.130;2023-02-12T11:16:04;10.70;;;6.27;;
11887;SDS011;6003;42.756;23.130;2023-02-12T11:18:32;15.43;;;8.23;;
11887;SDS011;6003;42.756;23.130;2023-02-12T11:21:01;12.90;;;7.53;;
11887;SDS011;6003;42.756;23.130;2023-02-12T11:23:31;7.90;;;4.83;;
11887;SDS011;6003;42.756;23.130;2023-02-12T11:26:00;19.40;;;9.03;;
11887;SDS011;6003;42.756;23.130;2023-02-12T11:28:30;8.37;;;6.37;;
11887;SDS011;6003;42.756;23.130;2023-02-12T11:30:59;17.73;;;9.23;;
11887;SDS011;6003;42.756;23.130;2023-02-12T11:33:30;14.77;;;7.87;;
11887;SDS011;6003;42.756;23.130;2023-02-12T11:36:00;9.53;;;5.37;;
11887;SDS011;6003;42.756;23.130;2023-02-12T11:38:31;11.80;;;7.67;;
11887;SDS011;6003;42.756;23.130;2023-02-12T11:41:02;11.73;;;6.87;;
11887;SDS011;6003;42.756;23.130;2023-02-12T11:43:34;5.13;;;3.40;;
11887;SDS011;6003;42.756;23.130;2023-02-12T11:46:03;9.03;;;5.77;;
11887;SDS011;6003;42.756;23.130;2023-02-12T11:48:33;14.57;;;7.83;;
11887;SDS011;6003;42.756;23.130;2023-02-12T11:51:03;10.57;;;4.80;;
11887;SDS011;6003;42.756;23.130;2023-02-12T11:53:34;22.37;;;9.53;;
11887;SDS011;6003;42.756;23.130;2023-02-12T11:56:05;18.33;;;8.77;;
11887;SDS011;6003;42.756;23.130;2023-02-12T11:58:35;15.83;;;8.60;;
11887;SDS011;6003;42.756;23.130;2023-02-12T12:01:10;10.67;;;6.30;;
11887;SDS011;6003;42.756;23.130;2023-02-12T12:03:43;15.93;;;8.70;;
11887;SDS011;6003;42.756;23.130;2023-02-12T12:06:20;13.17;;;8.83;;
11887;SDS011;6003;42.756;23.130;2023-02-12T12:08:52;17.40;;;8.37;;
11887;SDS011;6003;42.756;23.130;2023-02-12T12:11:28;12.67;;;7.10;;
11887;SDS011;6003;42.756;23.130;2023-02-12T12:14:02;8.87;;;5.43;;
11887;SDS011;6003;42.756;23.130;2023-02-12T12:16:35;9.07;;;6.30;;
11887;SDS011;6003;42.756;23.130;2023-02-12T12:19:23;15.37;;;8.57;;
11887;SDS011;6003;42.756;23.130;2023-02-12T12:22:19;9.37;;;6.57;;
11887;SDS011;6003;42.756;23.130;2023-02-12T12:24:55;16.83;;;8.10;;
11887;SDS011;6003;42.756;23.130;2023-02-12T12:27:26;8.23;;;5.47;;
11887;SDS011;6003;42.756;23.130;2023-02-12T12:30:21;9.07;;;5.77;;
11887;SDS011;6003;42.756;23.130;2023-02-12T12:35:55;12.27;;;6.30;;
11887;SDS011;6003;42.756;23.130;2023-02-12T12:38:35;14.17;;;8.27;;
11887;SDS011;6003;42.756;23.130;2023-02-12T12:41:12;6.57;;;3.53;;
11887;SDS011;6003;42.756;23.130;2023-02-12T12:43:53;14.33;;;7.90;;
11887;SDS011;6003;42.756;23.130;2023-02-12T12:46:37;15.27;;;7.67;;
11887;SDS011;6003;42.756;23.130;2023-02-12T12:49:24;11.93;;;7.00;;
11887;SDS011;6003;42.756;23.130;2023-02-12T12:52:13;12.13;;;6.40;;
11887;SDS011;6003;42.756;23.130;2023-02-12T12:54:54;10.23;;;6.80;;
11887;SDS011;6003;42.756;23.130;2023-02-12T12:57:48;8.17;;;5.90;;
11887;SDS011;6003;42.756;23.130;2023-02-12T13:00:25;12.03;;;7.70;;
11887;SDS011;6003;42.756;23.130;2023-02-12T13:03:27;17.97;;;9.30;;
11887;SDS011;6003;42.756;23.130;2023-02-12T13:09:19;17.57;;;8.87;;
11887;SDS011;6003;42.756;23.130;2023-02-12T13:11:58;10.53;;;7.53;;
11887;SDS011;6003;42.756;23.130;2023-02-12T13:14:48;15.83;;;8.90;;
11887;SDS011;6003;42.756;23.130;2023-02-12T13:17:25;13.57;;;7.00;;
11887;SDS011;6003;42.756;23.130;2023-02-12T13:20:01;10.87;;;6.83;;
11887;SDS011;6003;42.756;23.130;2023-02-12T13:22:36;12.00;;;6.80;;
11887;SDS011;6003;42.756;23.130;2023-02-12T13:25:15;13.97;;;7.27;;
11887;SDS011;6003;42.756;23.130;2023-02-12T13:27:47;10.77;;;6.10;;
11887;SDS011;6003;42.756;23.130;2023-02-12T13:30:17;16.40;;;9.50;;
11887;SDS011;6003;42.756;23.130;2023-02-12T13:32:47;9.50;;;5.00;;
11887;SDS011;6003;42.756;23.130;2023-02-12T13:35:21;10.23;;;6.87;;
11887;SDS011;6003;42.756;23.130;2023-02-12T13:37:50;8.47;;;5.67;;
11887;SDS011;6003;42.756;23.130;2023-02-12T13:40:19;13.17;;;8.07;;
11887;SDS011;6003;42.756;23.130;2023-02-12T13:42:50;14.20;;;7.20;;
11887;SDS011;6003;42.756;23.130;2023-02-12T13:45:24;8.33;;;5.53;;
11887;SDS011;6003;42.756;23.130;2023-02-12T13:48:15;9.17;;;7.23;;
11887;SDS011;6003;42.756;23.130;2023-02-12T13:51:04;14.13;;;8.13;;
11887;SDS011;6003;42.756;23.130;2023-02-12T13:53:44;14.53;;;8.70;;
11887;SDS011;6003;42.756;23.130;2023-02-12T13:56:25;14.30;;;8.90;;
11887;SDS011;6003;42.756;23.130;2023-02-12T13:58:59;11.87;;;7.50;;
11887;SDS011;6003;42.756;23.130;2023-02-12T14:04:27;17.97;;;8.10;;
11887;SDS011;6003;42.756;23.130;2023-02-12T14:06:58;11.83;;;7.77;;
11887;SDS011;6003;42.756;23.130;2023-02-12T14:09:32;15.80;;;8.83;;
11887;SDS011;6003;42.756;23.130;2023-02-12T14:12:02;14.10;;;6.43;;
11887;SDS011;6003;42.756;23.130;2023-02-12T14:14:33;12.27;;;7.57;;
11887;SDS011;6003;42.756;23.130;2023-02-12T14:20:07;6.57;;;5.07;;
11887;SDS011;6003;42.756;23.130;2023-02-12T14:26:06;13.97;;;7.53;;
11887;SDS011;6003;42.756;23.130;2023-02-12T14:31:30;10.63;;;5.40;;
11887;SDS011;6003;42.756;23.130;2023-02-12T14:37:17;14.60;;;8.00;;
11887;SDS011;6003;42.756;23.130;2023-02-12T14:45:56;11.83;;;7.13;;
11887;SDS011;6003;42.756;23.130;2023-02-12T14:48:38;8.73;;;6.90;;
11887;SDS011;6003;42.756;23.130;2023-02-12T14:51:13;6.77;;;5.80;;
11887;SDS011;6003;42.756;23.130;2023-02-12T14:53:45;14.87;;;7.93;;
11887;SDS011;6003;42.756;23.130;2023-02-12T14:56:17;11.53;;;6.97;;
11887;SDS011;6003;42.756;23.130;2023-02-12T14:58:47;15.87;;;8.87;;
11887;SDS011;6003;42.756;23.130;2023-02-12T15:01:15;11.43;;;6.77;;
11887;SDS011;6003;42.756;23.130;2023-02-12T15:03:45;16.53;;;7.93;;
11887;SDS011;6003;42.756;23.130;2023-02-12T15:06:17;17.83;;;9.77;;
11887;SDS011;6003;42.756;23.130;2023-02-12T15:08:48;14.77;;;7.87;;
11887;SDS011;6003;42.756;23.130;2023-02-12T15:11:20;13.47;;;8.07;;
11887;SDS011;6003;42.756;23.130;2023-02-12T15:13:56;12.03;;;6.40;;
11887;SDS011;6003;42.756;23.130;2023-02-12T15:16:30;14.30;;;6.97;;
11887;SDS011;6003;42.756;23.130;2023-02-12T15:19:01;9.63;;;5.90;;
11887;SDS011;6003;42.756;23.130;2023-02-12T15:21:36;16.43;;;8.37;;
11887;SDS011;6003;42.756;23.130;2023-02-12T15:24:04;13.30;;;8.70;;
11887;SDS011;6003;42.756;23.130;2023-02-12T15:26:33;20.73;;;9.90;;
11887;SDS011;6003;42.756;23.130;2023-02-12T15:29:03;9.90;;;6.87;;
11887;SDS011;6003;42.756;23.130;2023-02-12T15:31:32;19.07;;;8.03;;
11887;SDS011;6003;42.756;23.130;2023-02-12T15:34:00;22.03;;;9.77;;
11887;SDS011;6003;42.756;23.130;2023-02-12T15:36:29;21.37;;;8.97;;
11887;SDS011;6003;42.756;23.130;2023-02-12T15:38:59;18.80;;;10.10;;
11887;SDS011;6003;42.756;23.130;2023-02-12T15:41:33;15.87;;;10.43;;